createdAt,value
2018-08-20T00:01:04.695Z,21.90
2018-08-20T00:03:42.620Z,21.80
2018-08-20T00:06:13.469Z,21.80
2018-08-20T00:08:44.317Z,21.80
2018-08-20T00:11:15.227Z,21.70
2018-08-20T00:13:45.986Z,21.70
2018-08-20T00:16:16.925Z,21.70
2018-08-20T00:18:47.737Z,21.50
2018-08-20T00:21:18.549Z,21.40
2018-08-20T00:23:49.349Z,21.40
2018-08-20T00:26:20.191Z,21.30
2018-08-20T00:28:51.000Z,21.30
2018-08-20T00:31:21.801Z,21.30
2018-08-20T00:33:52.611Z,21.20
2018-08-20T00:36:23.570Z,21.30
2018-08-20T00:38:54.426Z,21.20
2018-08-20T00:41:25.241Z,21.20
2018-08-20T00:43:56.246Z,21.20
2018-08-20T00:46:27.455Z,21.20
2018-08-20T00:48:58.288Z,21.20
2018-08-20T00:51:29.179Z,21.10
2018-08-20T00:53:59.978Z,21.20
2018-08-20T00:56:30.879Z,21.20
2018-08-20T00:59:02.624Z,21.10
2018-08-20T01:01:33.895Z,21.10
2018-08-20T01:04:04.934Z,20.90
2018-08-20T01:06:35.748Z,21.00
2018-08-20T01:09:08.766Z,20.90
2018-08-20T01:11:39.625Z,20.90
2018-08-20T01:14:10.437Z,20.90
2018-08-20T01:16:41.366Z,20.90
2018-08-20T01:19:12.233Z,20.90
2018-08-20T01:21:43.125Z,20.80
2018-08-20T01:24:13.906Z,20.70
2018-08-20T01:26:44.698Z,20.60
2018-08-20T01:29:15.573Z,20.60
2018-08-20T01:31:46.414Z,20.50
2018-08-20T01:34:17.331Z,20.60
2018-08-20T01:36:48.189Z,20.50
2018-08-20T01:39:19.059Z,20.40
2018-08-20T01:41:49.855Z,20.40
2018-08-20T01:44:20.840Z,20.40
2018-08-20T01:46:51.742Z,20.40
2018-08-20T01:49:22.569Z,20.40
2018-08-20T01:51:53.441Z,20.40
2018-08-20T01:54:24.262Z,20.40
2018-08-20T01:56:55.104Z,20.50
2018-08-20T01:59:25.988Z,20.50
2018-08-20T02:01:56.845Z,20.50
2018-08-20T02:04:27.672Z,20.50
2018-08-20T02:06:58.615Z,20.50
2018-08-20T02:09:29.347Z,20.50
2018-08-20T02:12:00.210Z,20.50
2018-08-20T02:14:31.010Z,20.50
2018-08-20T02:17:01.926Z,20.50
2018-08-20T02:19:32.725Z,20.40
2018-08-20T02:22:03.777Z,20.30
2018-08-20T02:24:34.720Z,20.30
2018-08-20T02:27:05.813Z,20.20
2018-08-20T02:29:36.729Z,20.20
2018-08-20T02:32:07.773Z,20.10
2018-08-20T02:34:38.717Z,20.10
2018-08-20T02:37:09.695Z,20.00
2018-08-20T02:39:40.610Z,19.90
2018-08-20T02:42:11.504Z,19.90
2018-08-20T02:44:42.520Z,19.90
2018-08-20T02:47:13.437Z,19.90
2018-08-20T02:49:44.258Z,19.90
2018-08-20T02:52:15.054Z,19.90
2018-08-20T02:54:45.885Z,19.90
2018-08-20T02:57:16.666Z,19.90
2018-08-20T02:59:47.536Z,19.90
2018-08-20T03:02:18.416Z,19.80
2018-08-20T03:04:49.228Z,19.80
2018-08-20T03:07:20.087Z,19.70
2018-08-20T03:09:50.973Z,19.70
2018-08-20T03:12:21.853Z,19.60
2018-08-20T03:14:52.565Z,19.60
2018-08-20T03:17:23.477Z,19.60
2018-08-20T03:19:54.328Z,19.50
2018-08-20T03:22:25.169Z,19.50
2018-08-20T03:24:55.959Z,19.40
2018-08-20T03:27:27.720Z,19.40
2018-08-20T03:29:58.625Z,19.40
2018-08-20T03:32:29.449Z,19.40
2018-08-20T03:35:00.175Z,19.40
2018-08-20T03:37:31.036Z,19.30
2018-08-20T03:40:02.095Z,19.30
2018-08-20T03:42:33.044Z,19.30
2018-08-20T03:45:04.227Z,19.20
2018-08-20T03:47:35.261Z,19.20
2018-08-20T03:50:09.337Z,19.10
2018-08-20T03:52:40.304Z,19.10
2018-08-20T03:55:11.124Z,19.10
2018-08-20T03:57:41.985Z,19.10
2018-08-20T04:00:13.602Z,19.10
2018-08-20T04:02:44.519Z,19.10
2018-08-20T04:05:15.259Z,19.10
2018-08-20T04:07:46.137Z,19.10
2018-08-20T04:10:16.982Z,19.10
2018-08-20T04:12:47.821Z,19.10
2018-08-20T04:15:18.551Z,19.10
2018-08-20T04:17:49.411Z,19.10
2018-08-20T04:20:20.189Z,19.10
2018-08-20T04:22:51.097Z,19.20
2018-08-20T04:25:21.934Z,19.30
2018-08-20T04:27:52.765Z,19.50
2018-08-20T04:30:23.717Z,19.80
2018-08-20T04:32:54.484Z,20.20
2018-08-20T04:35:25.317Z,20.60
2018-08-20T04:37:56.136Z,20.90
2018-08-20T04:40:26.953Z,21.40
2018-08-20T04:42:57.863Z,21.70
2018-08-20T04:45:28.953Z,22.00
2018-08-20T04:47:59.802Z,22.30
2018-08-20T04:50:30.771Z,22.60
2018-08-20T04:53:01.389Z,23.00
2018-08-20T04:55:32.291Z,23.40
2018-08-20T05:55:37.957Z,30.50
2018-08-20T05:58:10.462Z,30.70
2018-08-20T06:00:41.658Z,31.20
2018-08-20T06:03:13.461Z,31.90
2018-08-20T06:05:44.811Z,32.40
2018-08-20T06:08:16.157Z,32.70
2018-08-20T06:10:47.609Z,33.30
2018-08-20T06:13:18.861Z,33.50
2018-08-20T06:15:50.015Z,33.40
2018-08-20T06:18:21.064Z,33.10
2018-08-20T06:20:52.382Z,33.10
2018-08-20T06:23:23.858Z,32.90
2018-08-20T06:25:55.284Z,33.20
2018-08-20T06:28:27.301Z,34.00
2018-08-20T06:30:58.518Z,34.40
2018-08-20T06:33:30.796Z,35.10
2018-08-20T06:36:03.831Z,35.70
2018-08-20T06:38:34.986Z,36.40
2018-08-20T06:41:06.271Z,36.30
2018-08-20T06:43:37.414Z,36.10
2018-08-20T06:46:09.915Z,36.10
2018-08-20T06:48:41.046Z,36.70
2018-08-20T06:51:12.130Z,37.00
2018-08-20T06:53:43.285Z,37.60
2018-08-20T06:56:14.734Z,37.60
2018-08-20T06:58:45.951Z,38.10
2018-08-20T07:01:17.894Z,38.30
2018-08-20T07:03:52.362Z,38.40
2018-08-20T07:06:23.546Z,38.40
2018-08-20T07:08:55.268Z,38.00
2018-08-20T07:11:26.536Z,38.20
2018-08-20T07:13:57.640Z,38.90
2018-08-20T07:16:29.413Z,39.10
2018-08-20T07:19:00.526Z,39.80
2018-08-20T07:21:32.344Z,40.50
2018-08-20T07:24:04.396Z,40.50
2018-08-20T07:26:35.393Z,41.20
2018-08-20T07:29:06.558Z,40.80
2018-08-20T07:31:37.545Z,40.40
2018-08-20T07:34:08.653Z,40.60
2018-08-20T07:36:39.628Z,40.70
2018-08-20T07:39:10.833Z,40.90
2018-08-20T07:41:41.935Z,40.80
2018-08-20T07:44:13.044Z,41.50
2018-08-20T07:46:43.997Z,42.10
2018-08-20T07:49:19.149Z,42.80
2018-08-20T07:51:51.253Z,43.70
2018-08-20T07:54:22.994Z,43.70
2018-08-20T07:56:54.413Z,42.90
2018-08-20T07:59:25.534Z,43.60
2018-08-20T08:01:57.321Z,44.20
2018-08-20T08:04:28.404Z,43.40
2018-08-20T08:06:59.870Z,42.70
2018-08-20T08:09:31.904Z,43.20
2018-08-20T08:12:03.126Z,43.50
2018-08-20T08:14:34.394Z,43.70
2018-08-20T08:17:05.361Z,44.20
2018-08-20T08:19:36.538Z,44.30
2018-08-20T08:22:07.620Z,44.20
2018-08-20T08:24:38.650Z,44.20
2018-08-20T08:27:09.613Z,44.00
2018-08-20T08:29:40.619Z,44.30
2018-08-20T08:32:11.537Z,44.30
2018-08-20T08:34:42.410Z,44.00
2018-08-20T08:37:13.401Z,43.60
2018-08-20T08:39:44.354Z,43.30
2018-08-20T08:42:15.316Z,43.30
2018-08-20T08:44:46.383Z,42.90
2018-08-20T08:47:17.345Z,42.70
2018-08-20T08:49:48.452Z,42.40
2018-08-20T08:52:19.395Z,42.60
2018-08-20T08:54:50.312Z,42.60
2018-08-20T08:57:21.566Z,42.50
2018-08-20T08:59:52.588Z,42.80
2018-08-20T09:02:23.430Z,42.70
2018-08-20T09:04:55.058Z,42.30
2018-08-20T09:07:25.966Z,42.30
2018-08-20T09:09:57.925Z,42.80
2018-08-20T09:12:28.951Z,42.10
2018-08-20T09:15:04.388Z,42.30
2018-08-20T09:17:35.582Z,42.80
2018-08-20T09:20:09.387Z,42.40
2018-08-20T09:22:40.741Z,42.10
2018-08-20T09:25:13.139Z,42.20
2018-08-20T09:27:45.343Z,42.10
2018-08-20T09:30:19.794Z,42.40
2018-08-20T09:32:50.967Z,42.20
2018-08-20T09:35:22.031Z,42.40
2018-08-20T09:37:53.101Z,42.70
2018-08-20T09:40:25.938Z,42.70
2018-08-20T09:42:56.904Z,42.30
2018-08-20T09:45:29.602Z,41.20
2018-08-20T09:48:00.619Z,40.70
2018-08-20T09:50:33.427Z,40.20
2018-08-20T09:53:04.431Z,40.10
2018-08-20T09:55:35.486Z,40.30
2018-08-20T09:58:06.755Z,40.70
2018-08-20T10:00:41.810Z,40.40
2018-08-20T10:03:12.777Z,40.20
2018-08-20T10:05:43.625Z,40.00
2018-08-20T10:08:14.489Z,40.40
2018-08-20T10:10:45.440Z,40.20
2018-08-20T10:13:16.425Z,39.90
2018-08-20T10:15:47.311Z,39.50
2018-08-20T10:18:19.180Z,39.80
2018-08-20T10:20:50.101Z,40.00
2018-08-20T10:23:21.037Z,40.30
2018-08-20T10:25:52.039Z,40.50
2018-08-20T10:28:23.002Z,40.40
2018-08-20T10:30:54.375Z,40.60
2018-08-20T10:33:25.401Z,40.10
2018-08-20T10:35:56.324Z,40.30
2018-08-20T10:38:27.347Z,40.50
2018-08-20T10:40:58.351Z,40.30
2018-08-20T10:43:29.448Z,40.50
2018-08-20T10:46:05.407Z,39.90
2018-08-20T10:48:36.529Z,39.80
2018-08-20T10:51:08.557Z,39.90
2018-08-20T10:53:39.525Z,40.20
2018-08-20T10:56:10.569Z,40.40
2018-08-20T10:58:41.935Z,40.50
2018-08-20T11:01:13.001Z,40.90
2018-08-20T11:03:47.889Z,41.10
2018-08-20T11:06:18.890Z,40.70
2018-08-20T11:08:50.379Z,40.60
2018-08-20T11:11:21.561Z,40.60
2018-08-20T11:13:55.688Z,40.80
2018-08-20T11:16:26.953Z,40.90
2018-08-20T11:18:58.878Z,41.20
2018-08-20T11:21:29.958Z,41.30
2018-08-20T11:24:01.136Z,41.00
2018-08-20T11:26:33.622Z,40.60
2018-08-20T11:29:15.949Z,40.10
2018-08-20T11:31:47.891Z,39.80
2018-08-20T11:34:20.264Z,39.60
2018-08-20T11:36:51.394Z,38.50
2018-08-20T11:39:22.429Z,37.30
2018-08-20T11:41:53.613Z,36.40
2018-08-20T11:44:24.920Z,35.50
2018-08-20T11:46:56.804Z,34.80
2018-08-20T15:56:42.581Z,34.70
2018-08-20T15:59:13.698Z,29.10
2018-08-20T16:01:44.945Z,28.70
2018-08-20T16:04:16.193Z,28.90
2018-08-20T16:06:48.729Z,28.90
2018-08-20T16:09:20.761Z,28.80
2018-08-20T16:11:52.957Z,28.80
2018-08-20T16:14:24.094Z,28.80
2018-08-20T16:16:57.013Z,28.80
2018-08-20T16:19:29.159Z,28.80
2018-08-20T16:22:00.156Z,28.70
2018-08-20T16:24:31.177Z,28.70
2018-08-20T16:27:02.380Z,28.70
2018-08-20T16:44:16.269Z,28.60
2018-08-20T16:46:47.352Z,28.50
2018-08-20T16:49:18.462Z,27.90
2018-08-20T16:51:49.507Z,27.80
2018-08-20T16:54:20.747Z,27.80
2018-08-20T16:56:52.747Z,27.80
2018-08-20T16:59:23.922Z,27.80
2018-08-20T17:01:55.699Z,27.70
2018-08-20T17:04:39.970Z,27.70
2018-08-20T17:07:11.132Z,27.70
2018-08-20T17:09:42.225Z,27.60
2018-08-20T17:12:13.470Z,27.60
2018-08-20T17:14:44.445Z,27.50
2018-08-20T17:20:22.333Z,27.40
2018-08-20T17:23:04.059Z,27.30
2018-08-20T17:25:35.092Z,27.20
2018-08-20T17:28:06.217Z,27.20
2018-08-20T17:30:37.155Z,27.20
2018-08-20T17:33:09.282Z,27.10
2018-08-20T17:35:42.593Z,27.00
2018-08-20T17:38:14.500Z,26.90
2018-08-20T17:40:45.509Z,26.90
2018-08-20T17:43:16.522Z,26.90
2018-08-20T17:45:47.452Z,26.70
2018-08-20T17:48:31.973Z,26.70
2018-08-20T17:51:04.537Z,26.60
2018-08-20T17:56:43.382Z,26.40
2018-08-20T17:59:14.714Z,26.40
2018-08-20T18:01:49.998Z,26.30
2018-08-20T18:04:24.007Z,26.30
2018-08-20T18:07:08.787Z,26.10
2018-08-20T18:09:40.805Z,26.10
2018-08-20T18:12:19.200Z,26.00
2018-08-20T18:14:57.881Z,26.00
2018-08-20T18:17:30.784Z,25.90
2018-08-20T18:20:11.395Z,25.80
2018-08-20T18:22:46.461Z,25.80
2018-08-20T18:29:02.818Z,25.80
2018-08-20T18:31:37.949Z,25.60
2018-08-20T18:34:09.302Z,25.50
2018-08-20T18:40:18.997Z,25.40
2018-08-20T18:56:35.956Z,25.30
2018-08-20T18:59:07.258Z,25.00
2018-08-20T19:01:38.671Z,24.90
2018-08-20T19:04:09.574Z,24.80
2018-08-20T19:06:40.683Z,24.80
2018-08-20T19:09:11.728Z,24.70
2018-08-20T19:11:43.792Z,24.50
2018-08-20T19:14:18.447Z,24.50
2018-08-20T19:16:49.513Z,24.30
2018-08-20T19:19:21.349Z,24.40
2018-08-20T19:21:52.272Z,24.30
2018-08-20T19:24:23.800Z,24.30
2018-08-20T19:26:57.216Z,24.30
2018-08-20T19:29:29.239Z,24.20
2018-08-20T19:32:00.317Z,24.20
2018-08-20T19:34:31.584Z,24.10
2018-08-20T19:37:02.616Z,24.20
2018-08-20T19:39:33.563Z,24.10
2018-08-20T19:42:07.532Z,24.10
2018-08-20T19:45:01.477Z,24.10
2018-08-20T19:47:33.695Z,24.00
2018-08-20T19:50:13.462Z,23.90
2018-08-20T19:52:44.490Z,23.80
2018-08-20T19:55:15.744Z,23.70
2018-08-20T19:58:02.783Z,23.70
2018-08-20T20:03:59.709Z,23.50
2018-08-20T20:06:41.365Z,23.40
2018-08-20T20:09:38.887Z,23.40
2018-08-20T20:12:14.748Z,23.40
2018-08-20T20:14:47.793Z,23.50
2018-08-20T20:17:19.333Z,23.50
2018-08-20T20:19:51.675Z,23.40
2018-08-20T20:22:25.610Z,23.20
2018-08-20T20:24:56.583Z,23.20
2018-08-20T20:27:27.787Z,23.20
2018-08-20T20:30:00.857Z,23.20
2018-08-20T20:32:34.894Z,23.20
2018-08-20T20:35:08.878Z,23.00
2018-08-20T20:37:58.330Z,23.00
2018-08-20T20:40:29.524Z,22.90
2018-08-20T20:43:02.657Z,22.90
2018-08-20T20:45:33.887Z,22.80
2018-08-20T21:07:03.096Z,22.60
2018-08-20T21:10:12.764Z,22.50
2018-08-20T21:12:46.686Z,22.50
